createdAt,value
2017-09-13T00:01:14.777Z,67.80
2017-09-13T00:03:42.301Z,67.90
2017-09-13T00:06:09.974Z,67.80
2017-09-13T00:08:37.471Z,67.60
2017-09-13T00:11:05.787Z,67.40
2017-09-13T00:13:34.793Z,67.10
2017-09-13T00:16:02.295Z,67.00
2017-09-13T00:18:30.567Z,67.10
2017-09-13T00:20:58.055Z,67.20
2017-09-13T00:23:26.332Z,67.60
2017-09-13T00:25:55.326Z,67.20
2017-09-13T00:28:23.619Z,66.90
2017-09-13T00:30:51.278Z,66.80
2017-09-13T00:33:18.927Z,67.00
2017-09-13T00:35:46.588Z,66.90
2017-09-13T00:38:14.246Z,66.90
2017-09-13T00:40:41.911Z,67.00
2017-09-13T00:43:09.571Z,66.80
2017-09-13T00:45:37.648Z,66.90
2017-09-13T00:48:05.921Z,66.90
2017-09-13T00:50:33.563Z,66.80
2017-09-13T00:53:01.839Z,66.80
2017-09-13T00:55:29.348Z,66.80
2017-09-13T00:57:56.955Z,66.60
2017-09-13T01:00:24.456Z,66.60
2017-09-13T01:02:52.722Z,66.60
2017-09-13T01:05:20.214Z,66.70
2017-09-13T01:07:48.476Z,67.30
2017-09-13T01:10:15.983Z,66.70
2017-09-13T01:12:43.482Z,66.70
2017-09-13T01:15:11.376Z,66.70
2017-09-13T01:17:39.035Z,66.80
2017-09-13T01:20:06.699Z,66.70
2017-09-13T01:22:34.395Z,66.50
2017-09-13T01:25:02.658Z,66.30
2017-09-13T01:27:30.159Z,66.30
2017-09-13T01:29:57.745Z,66.60
2017-09-13T01:32:25.248Z,66.70
2017-09-13T01:34:52.747Z,66.70
2017-09-13T01:37:21.739Z,66.70
2017-09-13T01:39:49.816Z,66.50
2017-09-13T01:42:17.708Z,66.30
2017-09-13T01:44:45.220Z,66.50
2017-09-13T01:47:13.118Z,66.60
2017-09-13T01:49:40.619Z,66.50
2017-09-13T01:52:08.311Z,66.60
2017-09-13T01:54:35.811Z,66.60
2017-09-13T01:57:03.309Z,66.60
2017-09-13T01:59:30.803Z,66.60
2017-09-13T02:01:58.323Z,66.50
2017-09-13T02:04:26.391Z,66.50
2017-09-13T02:06:53.885Z,66.40
2017-09-13T02:09:21.507Z,66.50
2017-09-13T02:11:49.785Z,66.40
2017-09-13T02:14:17.287Z,66.50
2017-09-13T02:16:45.008Z,66.50
2017-09-13T02:19:12.530Z,66.50
2017-09-13T02:21:40.026Z,66.50
2017-09-13T02:24:07.659Z,66.40
2017-09-13T02:26:35.639Z,66.40
2017-09-13T02:29:03.187Z,66.40
2017-09-13T02:31:30.843Z,66.30
2017-09-13T02:33:59.839Z,66.00
2017-09-13T02:36:28.109Z,65.70
2017-09-13T02:38:55.666Z,65.90
2017-09-13T02:41:23.334Z,66.00
2017-09-13T02:43:50.868Z,66.00
2017-09-13T02:46:18.355Z,66.10
2017-09-13T02:53:43.631Z,65.70
2017-09-13T02:56:11.129Z,65.90
2017-09-13T02:58:39.413Z,65.90
2017-09-13T03:01:07.046Z,66.10
2017-09-13T03:03:34.548Z,66.10
2017-09-13T03:06:02.163Z,66.30
2017-09-13T03:08:30.240Z,66.20
2017-09-13T03:10:57.900Z,66.30
2017-09-13T03:13:26.362Z,66.30
2017-09-13T03:15:53.858Z,66.30
2017-09-13T03:18:21.363Z,65.90
2017-09-13T03:20:49.623Z,66.50
2017-09-13T03:23:18.622Z,66.10
2017-09-13T03:25:46.231Z,66.20
2017-09-13T03:28:13.759Z,66.10
2017-09-13T03:30:41.423Z,65.70
2017-09-13T03:33:08.942Z,66.10
2017-09-13T03:35:37.695Z,66.10
2017-09-13T03:40:34.295Z,66.10
2017-09-13T03:43:02.444Z,66.00
2017-09-13T03:45:30.711Z,65.50
2017-09-13T03:47:58.974Z,66.00
2017-09-13T03:50:26.467Z,65.80
2017-09-13T03:52:53.971Z,65.80
2017-09-13T03:57:50.719Z,66.00
2017-09-13T04:00:18.211Z,65.80
2017-09-13T04:02:46.109Z,65.50
2017-09-13T04:05:13.615Z,65.60
2017-09-13T04:07:42.015Z,65.50
2017-09-13T04:10:09.502Z,65.70
2017-09-13T04:12:37.780Z,65.50
2017-09-13T04:15:05.687Z,65.50
2017-09-13T04:17:34.098Z,66.10
2017-09-13T04:20:02.011Z,65.70
2017-09-13T04:22:29.510Z,65.50
2017-09-13T04:24:57.058Z,65.60
2017-09-13T04:27:24.571Z,65.70
2017-09-13T04:29:52.099Z,65.60
2017-09-13T04:32:19.582Z,65.60
2017-09-13T04:34:47.111Z,65.30
2017-09-13T04:37:15.003Z,65.90
2017-09-13T04:39:42.507Z,66.00
2017-09-13T04:42:10.003Z,65.80
2017-09-13T04:44:37.527Z,66.00
2017-09-13T04:47:05.023Z,66.10
2017-09-13T04:49:32.519Z,66.10
2017-09-13T04:52:00.012Z,66.00
2017-09-13T04:54:27.903Z,66.00
2017-09-13T04:56:55.821Z,65.50
2017-09-13T04:59:23.465Z,65.40
2017-09-13T05:01:51.479Z,65.70
2017-09-13T05:04:18.978Z,65.70
2017-09-13T05:06:46.465Z,66.00
2017-09-13T05:09:14.780Z,66.00
2017-09-13T05:11:42.302Z,65.90
2017-09-13T05:14:09.812Z,65.70
2017-09-13T05:16:37.479Z,66.00
2017-09-13T05:19:04.975Z,66.00
2017-09-13T05:21:32.471Z,66.10
2017-09-13T05:24:00.870Z,66.70
2017-09-13T05:26:29.967Z,66.00
2017-09-13T05:28:57.608Z,66.10
2017-09-13T05:31:25.110Z,66.30
2017-09-13T05:33:52.607Z,66.30
2017-09-13T05:36:21.002Z,66.90
2017-09-13T05:38:48.526Z,66.30
2017-09-13T05:41:16.427Z,66.20
2017-09-13T05:43:43.983Z,66.50
2017-09-13T05:46:11.634Z,66.50
2017-09-13T05:48:39.123Z,66.40
2017-09-13T05:51:06.624Z,66.50
2017-09-13T05:53:35.250Z,66.60
2017-09-13T05:56:02.748Z,66.60
2017-09-13T05:58:31.773Z,66.80
2017-09-13T06:00:59.435Z,67.00
2017-09-13T06:03:26.926Z,67.30
2017-09-13T06:05:54.611Z,67.00
2017-09-13T06:08:23.023Z,66.70
2017-09-13T06:10:51.095Z,66.90
2017-09-13T06:13:18.591Z,67.10
2017-09-13T06:15:46.087Z,67.90
2017-09-13T06:18:14.067Z,68.20
2017-09-13T06:20:41.723Z,68.10
2017-09-13T06:23:09.387Z,67.30
2017-09-13T06:25:37.461Z,66.90
2017-09-13T06:28:05.111Z,67.10
2017-09-13T06:30:33.399Z,67.30
2017-09-13T06:33:00.903Z,66.60
2017-09-13T06:35:28.433Z,67.00
2017-09-13T06:37:56.335Z,67.30
2017-09-13T06:40:23.827Z,66.50
2017-09-13T06:42:51.327Z,66.80
2017-09-13T06:45:18.843Z,66.60
2017-09-13T06:47:46.343Z,66.30
2017-09-13T06:50:14.039Z,65.80
2017-09-13T06:52:41.558Z,66.30
2017-09-13T06:55:09.178Z,66.50
2017-09-13T06:57:36.721Z,66.10
2017-09-13T07:00:04.214Z,66.10
2017-09-13T07:02:31.829Z,66.40
2017-09-13T07:04:59.735Z,66.30
2017-09-13T07:07:27.340Z,66.10
2017-09-13T07:09:55.600Z,66.20
2017-09-13T07:12:23.678Z,65.80
2017-09-13T07:14:51.946Z,65.70
2017-09-13T07:17:19.833Z,66.10
2017-09-13T07:19:48.502Z,65.70
2017-09-13T07:22:16.167Z,66.10
2017-09-13T07:24:43.672Z,66.50
2017-09-13T07:27:11.280Z,66.10
2017-09-13T07:29:38.790Z,66.10
2017-09-13T07:32:07.420Z,66.60
2017-09-13T07:34:34.947Z,66.60
2017-09-13T07:39:31.607Z,65.80
2017-09-13T07:41:59.103Z,66.30
2017-09-13T07:44:26.599Z,65.90
2017-09-13T07:46:54.863Z,66.90
2017-09-13T07:49:23.281Z,66.90
2017-09-13T07:51:50.940Z,65.00
2017-09-13T07:54:18.434Z,63.70
2017-09-13T07:56:46.331Z,64.00
2017-09-13T07:59:14.723Z,64.60
2017-09-13T08:01:42.615Z,64.40
2017-09-13T08:04:10.251Z,65.70
2017-09-13T08:06:37.747Z,64.60
2017-09-13T08:09:05.239Z,64.60
2017-09-13T08:11:33.507Z,65.40
2017-09-13T08:14:01.763Z,64.20
2017-09-13T08:16:29.279Z,63.90
2017-09-13T08:18:56.827Z,64.00
2017-09-13T08:21:24.471Z,64.00
2017-09-13T08:23:52.127Z,63.80
2017-09-13T08:26:19.748Z,63.50
2017-09-13T08:28:48.466Z,62.80
2017-09-13T08:31:16.351Z,62.60
2017-09-13T08:33:44.620Z,62.20
2017-09-13T08:36:12.885Z,63.10
2017-09-13T08:38:40.552Z,63.90
2017-09-13T08:41:08.187Z,63.20
2017-09-13T08:43:36.451Z,64.00
2017-09-13T08:46:04.543Z,62.80
2017-09-13T08:48:32.207Z,62.70
2017-09-13T08:50:59.852Z,63.20
2017-09-13T08:53:27.350Z,63.40
2017-09-13T08:55:54.842Z,62.90
2017-09-13T08:58:23.112Z,64.40
2017-09-13T09:00:52.136Z,63.80
2017-09-13T09:03:19.639Z,64.00
2017-09-13T09:05:47.148Z,63.70
2017-09-13T09:08:14.655Z,63.00
2017-09-13T09:10:43.330Z,63.70
2017-09-13T09:13:12.466Z,63.70
2017-09-13T09:15:40.127Z,63.00
2017-09-13T09:18:07.620Z,62.90
2017-09-13T09:20:35.118Z,62.80
2017-09-13T09:23:03.392Z,63.90
2017-09-13T09:25:31.287Z,63.40
2017-09-13T09:27:58.843Z,62.90
2017-09-13T09:30:26.487Z,62.70
2017-09-13T09:32:53.994Z,63.20
2017-09-13T09:35:21.599Z,63.60
2017-09-13T09:37:49.678Z,63.50
2017-09-13T09:40:17.183Z,62.90
2017-09-13T09:42:46.009Z,62.20
2017-09-13T09:45:13.519Z,62.80
2017-09-13T09:47:41.012Z,62.90
2017-09-13T09:50:08.504Z,62.70
2017-09-13T09:52:36.015Z,62.30
2017-09-13T09:57:33.558Z,61.90
2017-09-13T10:00:01.053Z,61.90
2017-09-13T10:02:28.706Z,61.90
2017-09-13T10:04:56.367Z,62.20
2017-09-13T10:07:24.032Z,62.30
2017-09-13T10:09:51.697Z,62.30
2017-09-13T10:12:19.194Z,61.80
2017-09-13T10:14:46.687Z,61.80
2017-09-13T10:17:14.968Z,62.00
2017-09-13T10:19:42.464Z,62.30
2017-09-13T10:22:09.967Z,62.40
2017-09-13T10:24:37.638Z,63.10
2017-09-13T10:27:05.302Z,63.10
2017-09-13T10:29:32.817Z,63.30
2017-09-13T10:32:00.317Z,64.00
2017-09-13T10:34:27.871Z,64.40
2017-09-13T10:36:55.770Z,65.00
2017-09-13T10:39:23.382Z,65.60
2017-09-13T10:41:50.894Z,66.10
2017-09-13T10:44:18.495Z,66.90
2017-09-13T10:46:46.154Z,67.60
2017-09-13T10:49:14.227Z,68.20
2017-09-13T10:51:42.708Z,68.00
2017-09-13T10:54:10.599Z,68.10
2017-09-13T10:56:38.234Z,69.10
2017-09-13T10:59:05.731Z,69.00
2017-09-13T11:01:33.245Z,69.20
2017-09-13T11:04:00.903Z,69.60
2017-09-13T11:06:28.407Z,69.80
2017-09-13T11:08:55.899Z,69.60
2017-09-13T11:11:23.558Z,70.10
2017-09-13T11:13:51.230Z,70.30
2017-09-13T11:16:18.722Z,70.50
2017-09-13T11:18:46.231Z,70.70
2017-09-13T11:21:14.200Z,70.70
2017-09-13T11:23:41.864Z,70.70
2017-09-13T11:26:09.527Z,70.50
2017-09-13T11:28:37.027Z,70.20
2017-09-13T11:31:04.518Z,69.90
2017-09-13T11:33:32.075Z,69.70
2017-09-13T11:35:59.739Z,70.00
2017-09-13T11:38:27.406Z,69.10
2017-09-13T11:40:54.936Z,69.30
2017-09-13T11:43:23.570Z,68.90
2017-09-13T11:45:51.211Z,69.10
2017-09-13T11:48:19.662Z,68.20
2017-09-13T11:50:47.174Z,68.40
2017-09-13T11:53:14.664Z,68.40
2017-09-13T11:55:42.923Z,68.30
2017-09-13T11:58:11.184Z,68.40
2017-09-13T12:00:39.081Z,67.60
2017-09-13T12:03:07.360Z,67.40
2017-09-13T12:05:34.921Z,66.40
2017-09-13T12:08:02.420Z,66.60
2017-09-13T12:10:30.682Z,67.20
2017-09-13T12:12:58.175Z,67.00
2017-09-13T12:15:26.681Z,67.30
2017-09-13T12:17:54.603Z,66.90
2017-09-13T12:20:23.623Z,67.30
2017-09-13T12:22:52.007Z,66.90
2017-09-13T12:25:19.662Z,66.10
2017-09-13T12:27:47.162Z,67.10
2017-09-13T12:30:14.655Z,66.20
2017-09-13T12:32:42.931Z,66.90
2017-09-13T12:35:11.923Z,66.30
2017-09-13T12:37:39.612Z,65.80
2017-09-13T12:40:07.247Z,66.20
2017-09-13T12:42:35.527Z,66.20
2017-09-13T12:45:03.040Z,66.20
2017-09-13T12:47:30.643Z,66.10
2017-09-13T12:49:58.178Z,65.80
2017-09-13T12:52:26.439Z,66.00
2017-09-13T12:54:53.939Z,65.90
2017-09-13T12:57:21.491Z,66.10
2017-09-13T12:59:49.162Z,65.00
2017-09-13T13:02:16.676Z,65.30
2017-09-13T13:04:44.950Z,66.10
2017-09-13T13:07:13.232Z,65.70
2017-09-13T13:09:41.218Z,65.10
2017-09-13T13:12:09.482Z,64.80
2017-09-13T13:14:38.572Z,65.30
2017-09-13T13:17:06.236Z,65.20
2017-09-13T13:19:33.898Z,65.10
2017-09-13T13:22:01.423Z,65.10
2017-09-13T13:24:29.701Z,66.10
2017-09-13T13:26:57.683Z,66.40
2017-09-13T13:29:25.576Z,65.70
2017-09-13T13:31:53.480Z,65.80
2017-09-13T13:34:20.991Z,66.00
2017-09-13T13:36:48.495Z,65.80
2017-09-13T13:39:16.010Z,66.40
2017-09-13T13:41:43.654Z,65.90
2017-09-13T13:44:11.552Z,65.80
2017-09-13T13:46:39.043Z,66.10
2017-09-13T13:49:07.307Z,66.50
2017-09-13T13:51:35.727Z,66.50
2017-09-13T13:54:04.180Z,66.40
2017-09-13T13:56:31.691Z,66.30
2017-09-13T13:58:59.219Z,66.50
2017-09-13T14:01:26.719Z,66.90
2017-09-13T14:03:54.247Z,66.90
2017-09-13T14:06:21.798Z,66.60
2017-09-13T14:08:49.328Z,66.80
2017-09-13T14:11:16.819Z,66.50
2017-09-13T14:13:44.312Z,66.10
2017-09-13T14:16:12.220Z,66.20
2017-09-13T14:18:39.739Z,66.20
2017-09-13T14:21:07.255Z,65.90
2017-09-13T14:23:35.075Z,65.50
2017-09-13T14:26:02.609Z,65.40
2017-09-13T14:28:30.115Z,65.50
2017-09-13T14:30:57.646Z,65.90
2017-09-13T14:35:54.281Z,66.40
2017-09-13T14:38:21.788Z,66.40
2017-09-13T14:40:49.383Z,65.90
2017-09-13T14:43:17.686Z,66.10
2017-09-13T14:45:45.216Z,66.50
2017-09-13T14:48:12.711Z,67.30
2017-09-13T14:50:40.220Z,67.80
2017-09-13T14:53:07.847Z,67.70
2017-09-13T14:55:36.138Z,68.80
2017-09-13T14:58:04.420Z,69.30
2017-09-13T15:00:33.025Z,69.60
2017-09-13T15:03:00.816Z,69.20
2017-09-13T15:05:28.338Z,70.10
2017-09-13T15:07:56.003Z,69.90
2017-09-13T15:10:23.519Z,70.50
2017-09-13T15:12:51.795Z,71.40
2017-09-13T15:15:19.783Z,71.10
2017-09-13T15:17:47.295Z,71.20
2017-09-13T15:20:15.936Z,71.60
2017-09-13T15:22:43.454Z,71.90
2017-09-13T15:25:12.473Z,72.50
2017-09-13T15:27:39.991Z,72.60
2017-09-13T15:30:08.635Z,72.50
2017-09-13T15:32:36.135Z,72.70
2017-09-13T15:35:05.160Z,72.60
2017-09-13T15:37:32.680Z,72.60
2017-09-13T15:40:00.947Z,72.90
2017-09-13T15:42:29.368Z,73.80
2017-09-13T15:44:56.967Z,73.50
2017-09-13T15:47:24.455Z,73.70
2017-09-13T15:49:52.359Z,73.90
2017-09-13T15:52:19.867Z,74.00
2017-09-13T15:54:48.888Z,73.90
2017-09-13T15:57:17.172Z,74.40
2017-09-13T15:59:44.804Z,74.60
2017-09-13T16:02:13.221Z,75.00
2017-09-13T16:04:41.084Z,74.80
2017-09-13T16:07:08.608Z,75.10
2017-09-13T16:09:36.112Z,75.30
2017-09-13T16:12:03.623Z,75.40
2017-09-13T16:14:31.595Z,75.40
2017-09-13T16:16:59.451Z,75.40
2017-09-13T16:19:27.099Z,75.40
2017-09-13T16:21:55.794Z,75.30
2017-09-13T16:24:23.914Z,75.20
2017-09-13T16:26:52.135Z,75.20
2017-09-13T16:29:19.659Z,75.10
2017-09-13T16:31:48.235Z,75.10
2017-09-13T16:34:15.771Z,75.00
2017-09-13T16:36:43.588Z,75.00
2017-09-13T16:39:11.451Z,75.20
2017-09-13T16:41:39.314Z,75.10
2017-09-13T16:44:07.179Z,75.40
2017-09-13T16:46:35.041Z,75.00
2017-09-13T16:49:03.724Z,75.10
2017-09-13T16:51:31.250Z,75.00
2017-09-13T16:53:59.543Z,75.50
2017-09-13T16:56:27.047Z,74.90
2017-09-13T16:58:56.101Z,74.70
2017-09-13T17:01:24.275Z,74.40
2017-09-13T17:03:51.831Z,74.10
2017-09-13T17:06:19.331Z,74.30
2017-09-13T17:08:47.040Z,74.20
2017-09-13T17:11:14.904Z,74.30
2017-09-13T17:13:42.767Z,74.30
2017-09-13T17:16:10.630Z,74.20
2017-09-13T17:21:07.484Z,74.00
2017-09-13T17:23:35.245Z,73.90
2017-09-13T17:26:03.108Z,73.90
2017-09-13T17:28:31.995Z,73.70
2017-09-13T17:30:59.547Z,73.60
2017-09-13T17:33:28.541Z,74.20
2017-09-13T17:35:56.059Z,73.40
2017-09-13T17:38:24.269Z,73.30
2017-09-13T17:40:52.340Z,73.30
2017-09-13T17:43:20.235Z,72.80
2017-09-13T17:45:47.839Z,72.80
2017-09-13T17:48:15.723Z,72.80
2017-09-13T17:50:43.585Z,72.70
2017-09-13T17:53:11.448Z,72.20
2017-09-13T17:55:38.985Z,72.00
2017-09-13T17:58:07.588Z,72.00
2017-09-13T18:00:35.448Z,72.20
2017-09-13T18:03:03.000Z,72.00
2017-09-13T18:05:30.558Z,72.10
2017-09-13T18:10:28.836Z,71.90
2017-09-13T18:12:56.614Z,71.30
2017-09-13T18:15:24.943Z,72.00
2017-09-13T18:17:53.358Z,72.00
2017-09-13T18:20:20.999Z,71.40
2017-09-13T18:22:49.085Z,71.40
2017-09-13T18:25:16.607Z,71.30
2017-09-13T18:27:44.879Z,71.60
2017-09-13T18:30:13.494Z,72.30
2017-09-13T18:32:41.049Z,70.70
2017-09-13T18:35:08.574Z,70.70
2017-09-13T18:37:36.071Z,70.80
2017-09-13T18:40:03.599Z,70.50
2017-09-13T18:42:31.095Z,70.50
2017-09-13T18:44:58.592Z,69.80
2017-09-13T18:47:26.490Z,70.20
2017-09-13T18:49:54.148Z,70.10
2017-09-13T18:52:22.775Z,69.80
2017-09-13T18:54:50.900Z,69.80
2017-09-13T18:57:18.451Z,70.10
2017-09-13T18:59:45.961Z,69.90
2017-09-13T19:02:13.487Z,69.50
2017-09-13T19:04:40.996Z,69.80
2017-09-13T19:07:09.759Z,69.40
2017-09-13T19:09:38.489Z,69.30
2017-09-13T19:12:07.072Z,69.30
2017-09-13T19:14:34.831Z,69.30
2017-09-13T19:17:02.760Z,69.50
2017-09-13T19:19:30.331Z,69.50
2017-09-13T19:24:28.347Z,69.00
2017-09-13T19:26:56.348Z,68.80
2017-09-13T19:29:23.879Z,68.60
2017-09-13T19:31:51.370Z,68.90
2017-09-13T19:34:19.655Z,69.40
2017-09-13T19:36:47.919Z,69.30
2017-09-13T19:39:16.576Z,68.80
2017-09-13T19:41:44.194Z,68.40
2017-09-13T19:44:11.715Z,68.50
2017-09-13T19:46:40.106Z,68.80
2017-09-13T19:49:07.743Z,68.40
2017-09-13T19:51:35.251Z,68.10
2017-09-13T19:54:02.775Z,68.20
2017-09-13T19:56:30.262Z,68.00
2017-09-13T19:58:57.791Z,68.00
2017-09-13T20:01:25.286Z,67.80
2017-09-13T20:03:52.818Z,67.60
2017-09-13T20:06:20.311Z,67.70
2017-09-13T20:08:48.215Z,67.50
2017-09-13T20:11:15.875Z,67.50
2017-09-13T20:13:43.538Z,67.50
2017-09-13T20:16:12.535Z,67.20
2017-09-13T20:18:40.804Z,67.00
2017-09-13T20:21:08.300Z,66.50
2017-09-13T20:23:35.791Z,66.30
2017-09-13T20:26:03.287Z,66.50
2017-09-13T20:28:30.933Z,66.30
2017-09-13T20:33:27.423Z,65.90
2017-09-13T20:35:56.431Z,66.30
2017-09-13T20:38:24.831Z,66.30
2017-09-13T20:40:52.486Z,65.70
2017-09-13T20:43:20.147Z,65.80
2017-09-13T20:45:47.649Z,65.80
2017-09-13T20:48:15.142Z,65.90
2017-09-13T20:50:44.139Z,66.10
2017-09-13T20:53:12.027Z,66.10
2017-09-13T20:55:39.531Z,66.00
2017-09-13T20:58:07.044Z,66.00
2017-09-13T21:00:34.931Z,65.90
2017-09-13T21:03:03.187Z,65.70
2017-09-13T21:05:31.464Z,65.80
2017-09-13T21:07:58.967Z,65.60
2017-09-13T21:10:26.647Z,65.50
2017-09-13T21:12:54.148Z,65.20
2017-09-13T21:15:21.639Z,65.40
2017-09-13T21:17:49.909Z,65.30
2017-09-13T21:20:18.186Z,66.80
2017-09-13T21:22:46.460Z,65.80
2017-09-13T21:25:14.740Z,65.80
2017-09-13T21:27:42.234Z,65.10
2017-09-13T21:30:09.743Z,64.50
2017-09-13T21:32:37.249Z,64.20
2017-09-13T21:35:04.768Z,64.40
2017-09-13T21:37:33.027Z,64.40
2017-09-13T21:40:00.542Z,64.70
2017-09-13T21:44:56.890Z,64.40
2017-09-13T21:47:24.503Z,64.40
2017-09-13T21:49:52.054Z,64.40
2017-09-13T21:52:19.551Z,64.40
2017-09-13T21:54:47.158Z,64.10
2017-09-13T21:57:15.791Z,64.30
2017-09-13T21:59:43.308Z,64.20
2017-09-13T22:02:10.803Z,64.10
2017-09-13T22:04:38.751Z,64.30
2017-09-13T22:07:06.251Z,64.20
2017-09-13T22:09:33.786Z,64.30
2017-09-13T22:12:01.389Z,64.10
2017-09-13T22:14:28.918Z,64.50
2017-09-13T22:16:57.182Z,65.30
2017-09-13T22:19:24.707Z,63.10
2017-09-13T22:21:52.203Z,62.30
2017-09-13T22:24:19.827Z,62.20
2017-09-13T22:26:48.103Z,62.40
2017-09-13T22:29:15.607Z,62.70
2017-09-13T22:31:43.266Z,63.30
2017-09-13T22:34:10.759Z,63.60
2017-09-13T22:36:38.258Z,64.10
2017-09-13T22:39:06.255Z,64.50
2017-09-13T22:41:33.751Z,64.90
2017-09-13T22:44:01.360Z,65.20
2017-09-13T22:46:29.027Z,65.50
2017-09-13T22:48:57.287Z,65.50
2017-09-13T22:51:24.779Z,65.80
2017-09-13T22:56:21.516Z,66.20
2017-09-13T22:58:49.788Z,66.10
2017-09-13T23:01:17.292Z,66.10
2017-09-13T23:03:44.792Z,66.10
2017-09-13T23:06:12.336Z,66.30
2017-09-13T23:08:40.606Z,66.50
2017-09-13T23:11:08.274Z,66.30
2017-09-13T23:13:35.766Z,66.20
2017-09-13T23:16:03.267Z,66.20
2017-09-13T23:18:31.231Z,65.70
2017-09-13T23:20:59.127Z,65.60
2017-09-13T23:23:26.624Z,65.50
2017-09-13T23:25:54.219Z,65.30
2017-09-13T23:28:21.719Z,65.20
2017-09-13T23:30:49.212Z,65.40
2017-09-13T23:33:17.467Z,65.70
2017-09-13T23:35:45.275Z,65.30
2017-09-13T23:38:12.915Z,65.30
2017-09-13T23:40:40.576Z,65.10
2017-09-13T23:43:08.466Z,65.00
2017-09-13T23:45:36.746Z,64.90
2017-09-13T23:48:04.635Z,64.70
2017-09-13T23:50:32.148Z,64.40
2017-09-13T23:52:59.655Z,64.00
2017-09-13T23:55:27.195Z,64.40
2017-09-13T23:57:54.713Z,64.40
